createdAt,value
2019-04-05T00:01:26.734Z,100931.10
2019-04-05T00:03:57.600Z,100935.95
2019-04-05T00:06:28.404Z,100936.88
2019-04-05T00:08:59.087Z,100927.72
2019-04-05T00:11:30.292Z,100933.83
2019-04-05T00:14:01.206Z,100935.41
2019-04-05T00:16:33.572Z,100934.03
2019-04-05T00:19:04.341Z,100936.01
2019-04-05T00:21:35.123Z,100938.98
2019-04-05T00:24:05.997Z,100938.45
2019-04-05T00:26:37.224Z,100943.06
2019-04-05T00:29:07.931Z,100944.66
2019-04-05T00:31:39.595Z,100940.45
2019-04-05T00:34:10.298Z,100941.20
2019-04-05T00:36:40.997Z,100943.94
2019-04-05T00:39:11.865Z,100949.13
2019-04-05T00:41:42.346Z,100949.47
2019-04-05T00:44:13.203Z,100949.55
2019-04-05T00:46:44.838Z,100948.45
2019-04-05T00:49:15.830Z,100954.39
2019-04-05T00:51:46.550Z,100947.53
2019-04-05T00:54:17.102Z,100950.93
2019-04-05T00:56:47.751Z,100955.19
2019-04-05T00:59:18.617Z,100951.53
2019-04-05T01:01:49.710Z,100954.12
2019-04-05T01:04:20.685Z,100947.94
2019-04-05T01:06:51.438Z,100948.27
2019-04-05T01:09:22.502Z,100948.11
2019-04-05T01:11:53.610Z,100949.77
2019-04-05T01:14:26.399Z,100945.78
2019-04-05T01:16:57.986Z,100952.77
2019-04-05T01:19:31.952Z,100953.77
2019-04-05T01:22:05.980Z,100962.02
2019-04-05T01:24:36.716Z,100935.83
2019-04-05T01:27:09.412Z,100964.75
2019-04-05T01:29:40.283Z,100964.22
2019-04-05T01:32:10.936Z,100967.67
2019-04-05T01:34:41.963Z,100969.94
2019-04-05T01:37:12.994Z,100964.95
2019-04-05T01:39:43.807Z,100977.19
2019-04-05T01:42:14.852Z,100976.27
2019-04-05T01:44:45.840Z,100984.11
2019-04-05T01:47:16.482Z,100982.65
2019-04-05T01:49:47.424Z,100986.64
2019-04-05T01:52:18.838Z,100992.30
2019-04-05T01:54:49.709Z,100988.64
2019-04-05T01:57:20.499Z,100988.64
2019-04-05T01:59:51.315Z,100989.57
2019-04-05T02:02:21.775Z,100990.88
2019-04-05T02:04:52.864Z,100996.23
2019-04-05T02:07:25.274Z,100996.50
2019-04-05T02:09:56.339Z,100996.50
2019-04-05T02:12:27.543Z,100994.62
2019-04-05T02:14:58.369Z,100999.48
2019-04-05T02:17:29.265Z,101002.28
2019-04-05T02:20:00.109Z,101005.50
2019-04-05T02:22:30.791Z,101007.63
2019-04-05T02:25:01.400Z,101009.74
2019-04-05T02:27:32.503Z,101010.00
2019-04-05T02:30:03.380Z,101018.17
2019-04-05T02:32:34.031Z,101009.08
2019-04-05T02:35:04.936Z,101020.24
2019-04-05T02:37:35.768Z,101021.30
2019-04-05T02:40:11.831Z,101024.45
2019-04-05T02:42:45.019Z,101021.11
2019-04-05T02:45:19.320Z,101021.58
2019-04-05T02:47:53.569Z,101021.70
2019-04-05T02:50:27.255Z,101020.39
2019-04-05T02:53:01.661Z,101021.84
2019-04-05T02:55:33.223Z,101023.92
2019-04-05T02:58:06.157Z,101027.02
2019-04-05T03:00:37.561Z,101020.52
2019-04-05T03:03:08.610Z,101021.50
2019-04-05T03:05:40.332Z,101015.78
2019-04-05T03:08:11.212Z,101020.41
2019-04-05T03:11:19.949Z,101026.08
2019-04-05T03:13:57.220Z,101022.15
2019-04-05T03:16:41.162Z,101027.70
2019-04-05T03:19:13.440Z,101019.33
2019-04-05T03:21:47.132Z,101022.50
2019-04-05T03:24:21.335Z,101022.50
2019-04-05T03:26:59.879Z,101028.28
2019-04-05T03:29:32.185Z,101028.41
2019-04-05T03:32:04.405Z,101032.39
2019-04-05T03:34:37.324Z,101036.78
2019-04-05T03:37:08.193Z,101041.34
2019-04-05T03:39:40.580Z,101042.22
2019-04-05T03:42:11.534Z,101043.20
2019-04-05T03:44:42.689Z,101049.00
2019-04-05T03:47:14.053Z,101046.81
2019-04-05T03:49:45.886Z,101052.50
2019-04-05T03:52:16.809Z,101056.03
2019-04-05T03:54:47.146Z,101057.21
2019-04-05T03:57:18.100Z,101058.02
2019-04-05T03:59:48.728Z,101058.77
2019-04-05T04:02:19.284Z,101068.08
2019-04-05T04:04:50.177Z,101070.38
2019-04-05T04:07:21.179Z,101068.08
2019-04-05T04:09:52.024Z,101060.08
2019-04-05T04:12:22.596Z,101065.88
2019-04-05T04:14:55.187Z,101068.05
2019-04-05T04:17:25.732Z,101072.98
2019-04-05T04:19:56.490Z,101073.16
2019-04-05T04:22:31.456Z,101077.26
2019-04-05T04:25:02.435Z,101076.45
2019-04-05T04:27:33.757Z,101078.06
2019-04-05T04:30:04.648Z,101078.94
2019-04-05T04:32:35.918Z,101079.73
2019-04-05T04:35:06.802Z,101085.57
2019-04-05T04:37:41.604Z,101082.05
2019-04-05T04:40:14.181Z,101087.59
2019-04-05T04:42:44.715Z,101086.39
2019-04-05T04:45:16.112Z,101086.20
2019-04-05T04:47:46.987Z,101087.17
2019-04-05T04:50:17.903Z,101097.23
2019-04-05T04:52:48.963Z,101098.39
2019-04-05T04:55:21.286Z,101098.39
2019-04-05T04:57:52.889Z,101109.02
2019-04-05T05:00:26.335Z,101106.66
2019-04-05T05:02:58.216Z,101114.98
2019-04-05T05:05:30.104Z,101118.16
2019-04-05T05:08:01.127Z,101120.64
2019-04-05T05:10:34.095Z,101122.58
2019-04-05T05:13:05.204Z,101122.64
2019-04-05T05:15:37.366Z,101127.38
2019-04-05T05:18:10.879Z,101131.42
2019-04-05T05:20:43.552Z,101131.72
2019-04-05T05:23:16.421Z,101135.59
2019-04-05T05:25:47.624Z,101136.69
2019-04-05T05:28:18.735Z,101145.87
2019-04-05T05:31:10.607Z,101145.31
2019-04-05T05:33:41.949Z,101147.61
2019-04-05T05:36:12.969Z,101141.45
2019-04-05T05:38:46.640Z,101147.19
2019-04-05T05:41:17.221Z,101155.80
2019-04-05T05:43:48.141Z,101153.16
2019-04-05T05:46:18.851Z,101156.22
2019-04-05T05:48:49.632Z,101155.50
2019-04-05T05:51:20.943Z,101161.82
2019-04-05T05:53:51.973Z,101165.37
2019-04-05T05:56:22.563Z,101167.08
2019-04-05T05:58:55.324Z,101160.69
2019-04-05T06:01:25.908Z,101170.72
2019-04-05T06:03:56.807Z,101168.59
2019-04-05T06:06:27.485Z,101169.95
2019-04-05T06:08:58.269Z,101169.44
2019-04-05T06:11:28.777Z,101169.14
2019-04-05T06:13:59.550Z,101174.85
2019-04-05T06:16:30.504Z,101183.05
2019-04-05T06:19:01.109Z,101179.02
2019-04-05T06:21:31.798Z,101178.25
2019-04-05T06:24:05.157Z,101184.39
2019-04-05T06:26:35.187Z,101185.12
2019-04-05T06:29:06.377Z,101191.41
2019-04-05T06:31:37.002Z,101195.28
2019-04-05T06:34:07.705Z,101201.15
2019-04-05T06:36:38.398Z,101206.52
2019-04-05T06:39:09.825Z,101208.03
2019-04-05T06:41:40.580Z,101207.97
2019-04-05T06:44:11.414Z,101210.77
2019-04-05T06:46:42.340Z,101212.84
2019-04-05T06:49:13.027Z,101207.88
2019-04-05T06:51:43.787Z,101216.36
2019-04-05T06:54:14.385Z,101210.31
2019-04-05T06:56:45.035Z,101221.45
2019-04-05T06:59:19.150Z,101220.72
2019-04-05T07:01:48.172Z,101221.06
2019-04-05T07:04:19.230Z,101229.50
2019-04-05T07:06:49.995Z,101224.91
2019-04-05T07:09:21.831Z,101232.72
2019-04-05T07:11:52.479Z,101237.28
2019-04-05T07:14:23.077Z,101240.58
2019-04-05T07:16:54.507Z,101246.86
2019-04-05T07:19:25.295Z,101245.14
2019-04-05T07:21:56.177Z,101248.07
2019-04-05T07:24:26.819Z,101250.34
2019-04-05T07:26:57.685Z,101250.37
2019-04-05T07:29:28.486Z,101251.78
2019-04-05T07:31:59.304Z,101253.81
2019-04-05T07:34:30.146Z,101253.98
2019-04-05T07:37:01.063Z,101263.67
2019-04-05T07:39:31.890Z,101252.65
2019-04-05T07:42:02.616Z,101249.20
2019-04-05T07:44:33.299Z,101242.81
2019-04-05T07:47:04.172Z,101259.34
2019-04-05T07:49:34.902Z,101248.62
2019-04-05T07:52:05.917Z,101252.58
2019-04-05T07:54:36.393Z,101247.48
2019-04-05T07:57:07.282Z,101255.34
2019-04-05T07:59:38.118Z,101249.25
2019-04-05T08:02:08.950Z,101249.59
2019-04-05T08:04:39.597Z,101243.52
2019-04-05T08:07:10.834Z,101250.37
2019-04-05T08:09:41.993Z,101256.55
2019-04-05T08:12:13.333Z,101248.41
2019-04-05T08:14:44.846Z,101245.84
2019-04-05T08:17:15.718Z,101249.72
2019-04-05T08:19:47.389Z,101256.25
2019-04-05T08:22:17.929Z,101257.98
2019-04-05T08:24:48.546Z,101255.66
2019-04-05T08:27:19.277Z,101261.43
2019-04-05T08:29:49.986Z,101251.35
2019-04-05T08:32:20.530Z,101253.55
2019-04-05T08:34:51.073Z,101254.99
2019-04-05T08:37:21.875Z,101258.54
2019-04-05T08:39:54.291Z,101260.37
2019-04-05T08:42:25.693Z,101259.88
2019-04-05T08:44:57.439Z,101267.87
2019-04-05T08:47:28.270Z,101267.25
2019-04-05T08:49:58.943Z,101266.67
2019-04-05T08:52:29.870Z,101265.07
2019-04-05T08:55:00.583Z,101264.30
2019-04-05T08:57:31.419Z,101270.99
2019-04-05T09:00:02.319Z,101270.81
2019-04-05T09:02:35.444Z,101269.65
2019-04-05T09:05:26.587Z,101274.76
2019-04-05T09:07:58.287Z,101272.39
2019-04-05T09:10:29.305Z,101280.51
2019-04-05T09:13:01.287Z,101285.20
2019-04-05T09:15:32.245Z,101278.78
2019-04-05T09:18:03.027Z,101282.38
2019-04-05T09:20:33.456Z,101279.69
2019-04-05T09:23:04.113Z,101282.48
2019-04-05T09:25:35.131Z,101283.36
2019-04-05T09:28:05.848Z,101275.97
2019-04-05T09:30:36.795Z,101275.48
2019-04-05T09:33:07.527Z,101280.06
2019-04-05T09:35:38.995Z,101276.03
2019-04-05T09:38:09.839Z,101275.56
2019-04-05T09:40:42.761Z,101275.55
2019-04-05T09:43:14.664Z,101272.59
2019-04-05T09:45:45.402Z,101273.67
2019-04-05T09:48:36.294Z,101273.92
2019-04-05T09:51:11.083Z,101272.13
2019-04-05T09:53:41.560Z,101273.72
2019-04-05T09:56:13.463Z,101278.20
2019-04-05T09:58:43.739Z,101262.70
2019-04-05T10:01:13.919Z,101265.50
2019-04-05T10:03:44.572Z,101261.08
2019-04-05T10:06:16.512Z,101264.06
2019-04-05T10:08:46.830Z,101255.81
2019-04-05T10:11:17.163Z,101251.56
2019-04-05T10:13:47.446Z,101250.22
2019-04-05T10:16:17.604Z,101254.53
2019-04-05T10:18:47.907Z,101256.85
2019-04-05T10:21:18.281Z,101261.92
2019-04-05T10:23:48.553Z,101253.23
2019-04-05T10:26:19.070Z,101250.25
2019-04-05T10:28:49.289Z,101251.44
2019-04-05T10:31:19.716Z,101240.89
2019-04-05T10:33:50.062Z,101238.14
2019-04-05T10:36:20.471Z,101242.86
2019-04-05T10:38:51.671Z,101244.73
2019-04-05T10:41:23.275Z,101242.11
2019-04-05T10:43:53.458Z,101257.62
2019-04-05T10:46:23.986Z,101242.48
2019-04-05T10:48:54.291Z,101251.89
2019-04-05T10:51:24.548Z,101248.52
2019-04-05T10:53:54.755Z,101247.02
2019-04-05T10:56:26.992Z,101243.30
2019-04-05T10:58:58.367Z,101248.00
2019-04-05T11:01:29.204Z,101247.60
2019-04-05T11:03:59.535Z,101239.65
2019-04-05T11:06:29.746Z,101242.34
2019-04-05T11:09:01.141Z,101242.17
2019-04-05T11:11:33.471Z,101233.70
2019-04-05T11:14:13.521Z,101241.00
2019-04-05T11:16:39.234Z,101242.34
2019-04-05T11:19:13.104Z,101233.67
2019-04-05T11:21:43.496Z,101241.23
2019-04-05T11:24:13.693Z,101237.34
2019-04-05T11:26:44.066Z,101245.62
2019-04-05T11:29:14.884Z,101245.68
2019-04-05T11:31:56.317Z,101247.26
2019-04-05T11:34:17.679Z,101242.48
2019-04-05T11:36:48.014Z,101251.59
2019-04-05T11:39:19.036Z,101240.54
2019-04-05T11:41:50.690Z,101240.72
2019-04-05T11:44:21.048Z,101238.47
2019-04-05T11:46:51.618Z,101237.95
2019-04-05T11:49:23.424Z,101239.19
2019-04-05T11:51:53.968Z,101242.86
2019-04-05T11:54:24.218Z,101249.70
2019-04-05T11:56:56.853Z,101241.34
2019-04-05T11:59:27.897Z,101249.55
2019-04-05T12:02:23.497Z,101243.34
2019-04-05T12:04:56.582Z,101138.25
2019-04-05T12:07:27.498Z,101241.90
2019-04-05T12:09:58.069Z,101242.42
2019-04-05T12:12:28.584Z,101239.58
2019-04-05T12:15:01.444Z,101240.98
2019-04-05T12:17:35.003Z,101244.08
2019-04-05T12:20:13.140Z,101244.83
2019-04-05T12:22:47.651Z,101239.81
2019-04-05T12:25:21.017Z,101244.02
2019-04-05T12:27:51.256Z,101244.88
2019-04-05T12:30:24.470Z,101240.56
2019-04-05T12:32:54.713Z,101240.98
2019-04-05T12:35:25.076Z,101239.91
2019-04-05T12:37:56.155Z,101241.00
2019-04-05T12:40:27.165Z,101239.43
2019-04-05T12:42:57.384Z,101241.74
2019-04-05T12:45:27.575Z,101238.58
2019-04-05T12:47:59.161Z,101242.18
2019-04-05T12:50:30.546Z,101228.03
2019-04-05T12:53:00.754Z,101238.91
2019-04-05T12:55:31.079Z,101250.72
2019-04-05T12:58:01.281Z,101236.22
2019-04-05T13:00:31.559Z,101243.05
2019-04-05T13:03:01.818Z,101233.83
2019-04-05T13:05:32.112Z,101242.59
2019-04-05T13:08:02.343Z,101235.28
2019-04-05T13:10:33.384Z,101230.80
2019-04-05T13:13:03.943Z,101233.77
2019-04-05T13:15:34.126Z,101234.84
2019-04-05T13:18:04.452Z,101239.47
2019-04-05T13:20:34.658Z,101235.66
2019-04-05T13:23:06.702Z,101232.91
2019-04-05T13:25:38.845Z,101231.98
2019-04-05T13:28:13.598Z,101236.50
2019-04-05T13:30:40.739Z,101243.30
2019-04-05T13:33:10.951Z,101237.64
2019-04-05T13:35:41.182Z,101248.41
2019-04-05T13:38:11.375Z,101237.91
2019-04-05T13:40:41.560Z,101242.71
2019-04-05T13:43:11.730Z,101244.75
2019-04-05T13:45:42.145Z,101246.38
2019-04-05T13:48:12.401Z,101110.14
2019-04-05T13:50:42.657Z,101241.34
2019-04-05T13:53:12.934Z,101242.02
2019-04-05T13:55:47.322Z,101247.03
2019-04-05T13:58:17.105Z,101241.75
2019-04-05T14:00:48.869Z,101244.34
2019-04-05T14:03:20.880Z,101240.78
2019-04-05T14:05:53.993Z,101245.59
2019-04-05T14:08:23.077Z,101237.61
2019-04-05T14:10:53.282Z,101245.02
2019-04-05T14:13:23.694Z,101241.94
2019-04-05T14:15:56.684Z,101250.69
2019-04-05T14:18:26.944Z,101263.39
2019-04-05T14:20:57.109Z,101246.46
2019-04-05T14:23:27.960Z,101248.11
2019-04-05T14:25:59.815Z,101244.33
2019-04-05T14:28:30.095Z,101253.64
2019-04-05T14:31:02.443Z,101255.06
2019-04-05T14:33:34.008Z,101262.94
2019-04-05T14:36:04.613Z,101254.73
2019-04-05T14:38:35.016Z,101247.70
2019-04-05T14:41:05.395Z,101251.73
2019-04-05T14:43:37.832Z,101250.77
2019-04-05T14:46:07.966Z,101253.28
2019-04-05T14:48:38.260Z,101258.25
2019-04-05T14:51:08.462Z,101258.76
2019-04-05T14:53:39.787Z,101260.81
2019-04-05T14:56:09.940Z,101262.48
2019-04-05T14:58:40.129Z,101265.47
2019-04-05T15:01:10.780Z,101260.42
2019-04-05T15:03:43.274Z,101264.09
2019-04-05T15:06:13.474Z,101255.97
2019-04-05T15:08:43.740Z,101260.53
2019-04-05T15:11:14.033Z,101272.38
2019-04-05T15:13:45.086Z,101272.52
2019-04-05T15:16:15.468Z,101273.16
2019-04-05T15:18:45.767Z,101133.45
2019-04-05T15:21:16.081Z,101274.59
2019-04-05T15:23:47.437Z,101273.91
2019-04-05T15:26:20.376Z,101274.80
2019-04-05T15:28:54.606Z,101279.16
2019-04-05T15:31:25.830Z,101284.74
2019-04-05T15:33:57.793Z,101274.48
2019-04-05T15:36:31.512Z,101278.66
2019-04-05T15:39:02.003Z,101282.53
2019-04-05T15:41:33.969Z,101279.12
2019-04-05T15:44:05.843Z,101289.33
2019-04-05T15:46:37.685Z,101133.42
2019-04-05T15:49:08.064Z,101292.38
2019-04-05T15:51:38.269Z,101281.84
2019-04-05T15:54:08.459Z,101289.39
2019-04-05T15:56:39.189Z,101286.17
2019-04-05T15:59:09.408Z,101287.88
2019-04-05T16:01:39.785Z,101292.62
2019-04-05T16:04:10.039Z,101281.53
2019-04-05T16:06:40.197Z,101280.50
2019-04-05T16:09:17.186Z,101279.72
2019-04-05T16:11:48.085Z,101286.94
2019-04-05T16:14:18.329Z,101293.00
2019-04-05T16:16:48.574Z,101288.20
2019-04-05T16:19:18.785Z,101292.45
2019-04-05T16:21:49.387Z,101289.77
2019-04-05T16:24:19.602Z,101292.88
2019-04-05T16:26:51.845Z,101292.69
2019-04-05T16:29:30.711Z,101289.22
2019-04-05T16:32:05.584Z,101289.45
2019-04-05T16:34:35.787Z,101295.27
2019-04-05T16:37:06.486Z,101290.14
2019-04-05T16:39:36.672Z,101143.58
2019-04-05T16:42:10.015Z,101290.38
2019-04-05T16:44:41.655Z,101292.17
2019-04-05T16:47:12.623Z,101295.20
2019-04-05T16:49:54.806Z,101295.13
2019-04-05T16:52:26.937Z,101290.27
2019-04-05T16:55:02.422Z,101288.62
2019-04-05T16:57:40.101Z,101292.16
2019-04-05T17:00:18.272Z,101290.91
2019-04-05T17:02:49.771Z,101294.13
2019-04-05T17:05:26.704Z,101297.44
2019-04-05T17:08:01.539Z,101297.48
2019-04-05T17:10:33.415Z,101301.11
2019-04-05T17:13:05.022Z,101303.23
2019-04-05T17:15:42.106Z,101306.94
2019-04-05T17:18:17.264Z,101309.77
2019-04-05T17:20:57.829Z,101314.41
2019-04-05T17:23:33.383Z,101318.66
2019-04-05T17:26:11.390Z,101317.91
2019-04-05T17:28:46.412Z,101323.77
2019-04-05T17:31:17.256Z,101329.32
2019-04-05T17:33:49.898Z,101335.77
2019-04-05T17:36:23.311Z,101334.65
2019-04-05T17:38:55.954Z,101341.11
2019-04-05T17:41:29.349Z,101166.35
2019-04-05T17:44:02.065Z,101344.01
2019-04-05T17:46:34.269Z,101348.48
2019-04-05T17:49:06.006Z,101354.64
2019-04-05T17:51:38.184Z,101351.58
2019-04-05T17:54:08.444Z,101364.15
2019-04-05T17:56:41.431Z,101363.75
2019-04-05T17:59:14.985Z,101365.55
2019-04-05T18:01:47.504Z,101340.16
2019-04-05T18:04:17.680Z,101369.82
2019-04-05T18:06:47.916Z,101369.02
2019-04-05T18:09:19.028Z,101372.98
2019-04-05T18:11:49.337Z,101370.67
2019-04-05T18:14:19.671Z,101373.86
2019-04-05T18:16:50.286Z,101374.14
2019-04-05T18:19:22.558Z,101381.63
2019-04-05T18:21:52.799Z,101231.22
2019-04-05T18:24:22.973Z,101387.47
2019-04-05T18:26:53.344Z,101387.33
2019-04-05T18:29:23.514Z,101392.63
2019-04-05T18:31:55.627Z,101388.48
2019-04-05T18:34:27.603Z,101394.94
2019-04-05T18:37:01.927Z,101392.06
2019-04-05T18:39:34.301Z,101394.14
2019-04-05T18:42:11.750Z,101394.42
2019-04-05T18:44:43.686Z,101392.07
2019-04-05T18:47:17.005Z,101398.53
2019-04-05T18:50:02.481Z,101390.95
2019-04-05T18:52:23.829Z,101388.42
2019-04-05T18:54:54.044Z,101392.09
2019-04-05T18:57:24.255Z,101391.75
2019-04-05T18:59:54.472Z,101388.37
2019-04-05T19:02:25.744Z,101385.41
2019-04-05T19:04:56.248Z,101390.63
2019-04-05T19:07:28.270Z,101387.47
2019-04-05T19:09:58.449Z,101392.22
2019-04-05T19:12:28.798Z,101390.75
2019-04-05T19:14:59.986Z,101391.01
2019-04-05T19:17:30.679Z,101400.19
2019-04-05T19:20:00.867Z,101400.22
2019-04-05T19:22:31.118Z,101399.81
2019-04-05T19:25:04.805Z,101403.28
2019-04-05T19:27:34.040Z,101410.01
2019-04-05T19:50:29.728Z,101418.72
2019-04-05T19:52:59.896Z,101418.10
2019-04-05T19:55:31.903Z,101420.05
2019-04-05T19:58:02.071Z,101420.00
2019-04-05T20:00:32.396Z,101423.64
2019-04-05T20:03:02.622Z,101421.27
2019-04-05T20:05:32.879Z,101420.34
2019-04-05T20:08:03.066Z,101436.80
2019-04-05T20:10:33.255Z,101430.79
2019-04-05T20:13:03.441Z,101429.98
2019-04-05T20:15:33.712Z,101436.09
2019-04-05T20:18:03.910Z,101442.92
2019-04-05T20:20:34.805Z,101437.11
2019-04-05T20:23:05.005Z,101435.88
2019-04-05T20:25:35.205Z,101438.38
2019-04-05T20:28:07.657Z,101435.26
2019-04-05T20:30:37.903Z,101432.47
2019-04-05T20:33:08.107Z,101437.20
2019-04-05T20:35:38.389Z,101439.77
2019-04-05T20:38:10.632Z,101432.08
2019-04-05T20:40:41.079Z,101442.69
2019-04-05T20:43:11.253Z,101439.05
2019-04-05T20:45:41.471Z,101435.42
2019-04-05T20:48:12.547Z,101436.66
2019-04-05T20:50:42.723Z,101441.91
2019-04-05T20:53:13.485Z,101440.43
2019-04-05T20:55:43.655Z,101433.13
2019-04-05T20:58:14.056Z,101440.19
2019-04-05T21:00:44.269Z,101435.12
2019-04-05T21:03:14.446Z,101442.78
2019-04-05T21:05:44.676Z,101443.09
2019-04-05T21:08:14.901Z,101444.02
2019-04-05T21:10:45.126Z,101439.01
2019-04-05T21:13:15.315Z,101443.14
2019-04-05T21:15:46.464Z,101447.34
2019-04-05T21:18:16.754Z,101439.83
2019-04-05T21:20:47.718Z,101445.34
2019-04-05T21:23:17.905Z,101444.06
2019-04-05T21:25:48.094Z,101442.63
2019-04-05T21:28:20.582Z,101442.58
2019-04-05T21:30:50.750Z,101451.58
2019-04-05T21:33:20.963Z,101450.25
2019-04-05T21:35:51.182Z,101448.56
2019-04-05T21:38:24.437Z,101451.99
2019-04-05T21:40:54.763Z,101454.87
2019-04-05T21:43:25.708Z,101455.62
2019-04-05T21:45:57.835Z,101445.84
2019-04-05T21:48:30.492Z,101442.67
2019-04-05T21:51:00.351Z,101443.54
2019-04-05T21:53:30.814Z,101439.70
2019-04-05T21:56:03.613Z,101440.32
2019-04-05T21:58:33.749Z,101439.33
2019-04-05T22:01:08.348Z,101438.62
2019-04-05T22:03:39.479Z,101437.03
2019-04-05T22:06:10.942Z,101438.62
2019-04-05T22:08:43.721Z,101435.20
2019-04-05T22:11:15.347Z,101424.80
2019-04-05T22:13:46.074Z,101433.84
2019-04-05T22:16:19.476Z,101437.55
2019-04-05T22:18:49.730Z,101433.06
2019-04-05T22:21:21.833Z,101431.52
2019-04-05T22:23:52.029Z,101430.47
2019-04-05T22:26:22.199Z,101432.63
2019-04-05T22:28:53.764Z,101436.42
2019-04-05T22:31:24.515Z,101438.80
2019-04-05T22:33:56.330Z,101451.86
2019-04-05T22:36:26.983Z,101438.25
2019-04-05T22:38:59.130Z,101437.80
2019-04-05T22:41:29.554Z,101443.57
2019-04-05T22:44:00.144Z,101445.36
2019-04-05T22:46:33.061Z,101436.42
2019-04-05T22:49:03.551Z,101442.88
2019-04-05T22:51:33.854Z,101434.27
2019-04-05T22:54:04.139Z,101434.27
2019-04-05T22:56:34.319Z,101430.61
2019-04-05T22:59:04.789Z,101431.57
2019-04-05T23:01:35.092Z,101423.61
2019-04-05T23:04:06.363Z,101430.52
2019-04-05T23:06:37.358Z,101423.88
2019-04-05T23:09:09.499Z,101419.95
2019-04-05T23:11:39.851Z,101425.84
2019-04-05T23:14:10.480Z,101417.66
2019-04-05T23:16:40.725Z,101416.09
2019-04-05T23:19:11.827Z,101410.01
2019-04-05T23:21:42.018Z,101404.97
2019-04-05T23:24:12.216Z,101415.09
2019-04-05T23:26:42.420Z,101407.44
2019-04-05T23:29:12.641Z,101409.04
2019-04-05T23:31:42.932Z,101398.00
2019-04-05T23:34:13.124Z,101404.73
2019-04-05T23:36:43.644Z,101412.01
2019-04-05T23:39:13.821Z,101402.70
2019-04-05T23:41:44.047Z,101408.34
2019-04-05T23:44:14.241Z,101409.14
2019-04-05T23:46:44.456Z,101406.74
2019-04-05T23:49:14.710Z,101405.25
2019-04-05T23:51:44.880Z,101401.70
2019-04-05T23:54:15.051Z,101407.31
2019-04-05T23:56:47.075Z,101398.83
2019-04-05T23:59:17.259Z,101399.70
